sensor_id;sensor_type;location;lat;lon;timestamp;temperature;humidity
4293;DHT22;2160;51.172;6.808;2023-12-04T05:01:05;3.70;99.90
4293;DHT22;2160;51.172;6.808;2023-12-04T05:03:32;3.80;99.90
4293;DHT22;2160;51.172;6.808;2023-12-04T05:05:59;3.90;99.90
4293;DHT22;2160;51.172;6.808;2023-12-04T05:08:26;4.00;99.90
4293;DHT22;2160;51.172;6.808;2023-12-04T05:10:53;4.00;99.90
4293;DHT22;2160;51.172;6.808;2023-12-04T05:13:20;4.00;99.90
4293;DHT22;2160;51.172;6.808;2023-12-04T05:15:47;4.00;99.90
4293;DHT22;2160;51.172;6.808;2023-12-04T05:18:15;3.90;99.90
4293;DHT22;2160;51.172;6.808;2023-12-04T05:20:42;3.70;99.90
4293;DHT22;2160;51.172;6.808;2023-12-04T05:23:09;3.70;99.90
4293;DHT22;2160;51.172;6.808;2023-12-04T05:25:36;3.60;99.90
4293;DHT22;2160;51.172;6.808;2023-12-04T05:28:03;3.60;99.90
4293;DHT22;2160;51.172;6.808;2023-12-04T05:30:31;3.60;99.90
4293;DHT22;2160;51.172;6.808;2023-12-04T05:32:58;3.70;99.90
4293;DHT22;2160;51.172;6.808;2023-12-04T05:35:26;3.80;99.90
4293;DHT22;2160;51.172;6.808;2023-12-04T05:37:54;3.80;99.90
4293;DHT22;2160;51.172;6.808;2023-12-04T05:40:21;3.70;99.90
4293;DHT22;2160;51.172;6.808;2023-12-04T05:42:48;3.60;99.90
4293;DHT22;2160;51.172;6.808;2023-12-04T05:45:15;3.60;99.90
4293;DHT22;2160;51.172;6.808;2023-12-04T05:47:42;3.80;99.90
4293;DHT22;2160;51.172;6.808;2023-12-04T05:50:09;3.90;99.90
4293;DHT22;2160;51.172;6.808;2023-12-04T05:52:38;3.90;99.90
4293;DHT22;2160;51.172;6.808;2023-12-04T05:55:05;3.90;99.90
4293;DHT22;2160;51.172;6.808;2023-12-04T05:57:32;3.80;99.90
4293;DHT22;2160;51.172;6.808;2023-12-04T05:59:59;4.00;99.90
4293;DHT22;2160;51.172;6.808;2023-12-04T06:02:26;3.80;99.90
4293;DHT22;2160;51.172;6.808;2023-12-04T06:04:53;3.60;99.90
4293;DHT22;2160;51.172;6.808;2023-12-04T06:07:20;3.60;99.90
4293;DHT22;2160;51.172;6.808;2023-12-04T06:09:48;3.60;99.90
4293;DHT22;2160;51.172;6.808;2023-12-04T06:12:15;3.60;99.90
4293;DHT22;2160;51.172;6.808;2023-12-04T06:14:46;3.60;99.90
4293;DHT22;2160;51.172;6.808;2023-12-04T06:17:13;3.60;99.90
4293;DHT22;2160;51.172;6.808;2023-12-04T06:19:40;3.80;99.90
4293;DHT22;2160;51.172;6.808;2023-12-04T06:22:07;3.80;99.90
4293;DHT22;2160;51.172;6.808;2023-12-04T06:24:35;3.80;99.90
4293;DHT22;2160;51.172;6.808;2023-12-04T06:27:04;3.90;99.90
4293;DHT22;2160;51.172;6.808;2023-12-04T06:29:34;3.90;99.90
4293;DHT22;2160;51.172;6.808;2023-12-04T06:32:02;3.80;99.90
4293;DHT22;2160;51.172;6.808;2023-12-04T06:34:30;4.00;99.90
4293;DHT22;2160;51.172;6.808;2023-12-04T06:36:58;3.70;99.90
4293;DHT22;2160;51.172;6.808;2023-12-04T06:39:32;3.80;99.90
4293;DHT22;2160;51.172;6.808;2023-12-04T06:41:59;3.70;99.90
4293;DHT22;2160;51.172;6.808;2023-12-04T06:44:28;3.70;99.90
4293;DHT22;2160;51.172;6.808;2023-12-04T06:46:57;3.50;99.90
4293;DHT22;2160;51.172;6.808;2023-12-04T06:49:29;3.60;99.90
4293;DHT22;2160;51.172;6.808;2023-12-04T06:51:56;3.60;99.90
4293;DHT22;2160;51.172;6.808;2023-12-04T06:54:23;3.60;99.90
4293;DHT22;2160;51.172;6.808;2023-12-04T06:56:50;3.60;99.90
4293;DHT22;2160;51.172;6.808;2023-12-04T06:59:17;3.30;99.90
4293;DHT22;2160;51.172;6.808;2023-12-04T07:01:46;3.40;99.90
4293;DHT22;2160;51.172;6.808;2023-12-04T07:04:13;3.50;99.90
4293;DHT22;2160;51.172;6.808;2023-12-04T07:06:46;3.60;99.90
4293;DHT22;2160;51.172;6.808;2023-12-04T07:09:13;3.60;99.90
4293;DHT22;2160;51.172;6.808;2023-12-04T07:11:40;3.70;99.90
4293;DHT22;2160;51.172;6.808;2023-12-04T07:14:07;3.90;99.90
4293;DHT22;2160;51.172;6.808;2023-12-04T07:16:39;4.00;99.90
4293;DHT22;2160;51.172;6.808;2023-12-04T07:19:08;3.80;99.90
4293;DHT22;2160;51.172;6.808;2023-12-04T07:21:35;3.90;99.90
4293;DHT22;2160;51.172;6.808;2023-12-04T07:24:02;3.90;99.90
4293;DHT22;2160;51.172;6.808;2023-12-04T07:26:30;3.90;99.90
4293;DHT22;2160;51.172;6.808;2023-12-04T07:28:57;3.90;99.90
4293;DHT22;2160;51.172;6.808;2023-12-04T07:31:24;3.90;99.90
4293;DHT22;2160;51.172;6.808;2023-12-04T07:33:52;4.00;99.90
4293;DHT22;2160;51.172;6.808;2023-12-04T07:36:20;4.10;99.90
4293;DHT22;2160;51.172;6.808;2023-12-04T07:38:48;3.80;99.90
4293;DHT22;2160;51.172;6.808;2023-12-04T07:41:17;3.90;99.90
4293;DHT22;2160;51.172;6.808;2023-12-04T07:43:44;4.00;99.90
4293;DHT22;2160;51.172;6.808;2023-12-04T07:46:11;4.10;99.90
4293;DHT22;2160;51.172;6.808;2023-12-04T07:48:39;4.00;99.90
4293;DHT22;2160;51.172;6.808;2023-12-04T07:51:07;4.10;99.90
4293;DHT22;2160;51.172;6.808;2023-12-04T07:53:35;4.20;99.90
4293;DHT22;2160;51.172;6.808;2023-12-04T07:56:03;4.30;99.90
4293;DHT22;2160;51.172;6.808;2023-12-04T07:58:30;4.30;99.90
4293;DHT22;2160;51.172;6.808;2023-12-04T08:00:57;4.30;99.90
4293;DHT22;2160;51.172;6.808;2023-12-04T08:03:24;4.30;99.90
4293;DHT22;2160;51.172;6.808;2023-12-04T08:05:51;4.10;99.90
4293;DHT22;2160;51.172;6.808;2023-12-04T08:08:18;4.10;99.90
4293;DHT22;2160;51.172;6.808;2023-12-04T08:10:48;4.30;99.90
4293;DHT22;2160;51.172;6.808;2023-12-04T08:13:15;4.30;99.90
4293;DHT22;2160;51.172;6.808;2023-12-04T08:15:42;4.30;99.90
4293;DHT22;2160;51.172;6.808;2023-12-04T08:18:09;4.30;99.90
4293;DHT22;2160;51.172;6.808;2023-12-04T08:20:36;4.30;99.90
4293;DHT22;2160;51.172;6.808;2023-12-04T08:23:03;4.40;99.90
4293;DHT22;2160;51.172;6.808;2023-12-04T08:25:31;4.40;99.90
4293;DHT22;2160;51.172;6.808;2023-12-04T08:27:59;4.30;99.90
4293;DHT22;2160;51.172;6.808;2023-12-04T08:30:26;4.20;99.90
4293;DHT22;2160;51.172;6.808;2023-12-04T08:32:53;4.30;99.90
4293;DHT22;2160;51.172;6.808;2023-12-04T08:35:21;4.30;99.90
4293;DHT22;2160;51.172;6.808;2023-12-04T08:37:48;4.30;99.90
4293;DHT22;2160;51.172;6.808;2023-12-04T08:40:15;4.20;99.90
4293;DHT22;2160;51.172;6.808;2023-12-04T08:42:43;4.40;99.90
4293;DHT22;2160;51.172;6.808;2023-12-04T08:45:11;4.50;99.90
4293;DHT22;2160;51.172;6.808;2023-12-04T08:47:38;4.60;99.90
4293;DHT22;2160;51.172;6.808;2023-12-04T08:50:06;4.60;99.90
4293;DHT22;2160;51.172;6.808;2023-12-04T08:52:35;4.50;99.90
4293;DHT22;2160;51.172;6.808;2023-12-04T08:55:02;4.50;99.90
4293;DHT22;2160;51.172;6.808;2023-12-04T08:57:29;4.50;99.90
4293;DHT22;2160;51.172;6.808;2023-12-04T08:59:56;4.60;99.90
4293;DHT22;2160;51.172;6.808;2023-12-04T09:02:24;4.60;99.90
4293;DHT22;2160;51.172;6.808;2023-12-04T09:04:51;4.60;99.90
4293;DHT22;2160;51.172;6.808;2023-12-04T09:07:18;4.50;99.90
4293;DHT22;2160;51.172;6.808;2023-12-04T09:09:45;4.80;99.90
4293;DHT22;2160;51.172;6.808;2023-12-04T09:12:12;4.70;99.90
4293;DHT22;2160;51.172;6.808;2023-12-04T09:14:40;4.80;99.90
4293;DHT22;2160;51.172;6.808;2023-12-04T09:17:07;4.60;99.90
4293;DHT22;2160;51.172;6.808;2023-12-04T09:19:35;4.70;99.90
4293;DHT22;2160;51.172;6.808;2023-12-04T09:22:02;4.80;99.90
4293;DHT22;2160;51.172;6.808;2023-12-04T09:24:29;4.70;99.90
4293;DHT22;2160;51.172;6.808;2023-12-04T09:26:56;4.80;99.90
4293;DHT22;2160;51.172;6.808;2023-12-04T09:29:23;5.00;99.90
4293;DHT22;2160;51.172;6.808;2023-12-04T09:31:51;5.00;99.90
4293;DHT22;2160;51.172;6.808;2023-12-04T09:34:18;4.90;99.90
4293;DHT22;2160;51.172;6.808;2023-12-04T09:36:47;4.80;99.90
4293;DHT22;2160;51.172;6.808;2023-12-04T09:39:15;4.80;99.90
4293;DHT22;2160;51.172;6.808;2023-12-04T09:41:43;4.80;99.90
4293;DHT22;2160;51.172;6.808;2023-12-04T09:44:10;4.80;99.90
4293;DHT22;2160;51.172;6.808;2023-12-04T09:46:38;4.90;99.90
4293;DHT22;2160;51.172;6.808;2023-12-04T09:49:06;4.90;99.90
4293;DHT22;2160;51.172;6.808;2023-12-04T09:51:33;4.80;99.90
4293;DHT22;2160;51.172;6.808;2023-12-04T09:54:02;4.80;99.90
4293;DHT22;2160;51.172;6.808;2023-12-04T09:56:31;5.00;99.90
4293;DHT22;2160;51.172;6.808;2023-12-04T09:59:00;5.10;99.90
4293;DHT22;2160;51.172;6.808;2023-12-04T10:01:28;5.20;99.90
4293;DHT22;2160;51.172;6.808;2023-12-04T10:03:56;5.30;99.90
4293;DHT22;2160;51.172;6.808;2023-12-04T10:06:26;5.40;99.90
4293;DHT22;2160;51.172;6.808;2023-12-04T10:08:55;5.30;99.90
4293;DHT22;2160;51.172;6.808;2023-12-04T10:11:24;5.10;99.40
4293;DHT22;2160;51.172;6.808;2023-12-04T10:13:52;5.20;99.90
4293;DHT22;2160;51.172;6.808;2023-12-04T10:16:36;5.20;99.90
4293;DHT22;2160;51.172;6.808;2023-12-04T10:19:18;5.10;99.90
4293;DHT22;2160;51.172;6.808;2023-12-04T10:21:46;5.20;99.90
4293;DHT22;2160;51.172;6.808;2023-12-04T10:24:30;5.20;99.20
4293;DHT22;2160;51.172;6.808;2023-12-04T10:26:59;5.40;99.90
4293;DHT22;2160;51.172;6.808;2023-12-04T10:29:27;5.60;98.80
4293;DHT22;2160;51.172;6.808;2023-12-04T10:31:55;5.60;99.90
4293;DHT22;2160;51.172;6.808;2023-12-04T10:34:25;5.40;99.40
4293;DHT22;2160;51.172;6.808;2023-12-04T10:36:52;5.30;99.90
4293;DHT22;2160;51.172;6.808;2023-12-04T10:39:20;5.40;99.90
4293;DHT22;2160;51.172;6.808;2023-12-04T10:42:00;5.30;99.90
4293;DHT22;2160;51.172;6.808;2023-12-04T10:44:28;5.40;99.90
4293;DHT22;2160;51.172;6.808;2023-12-04T10:46:56;5.30;99.90
4293;DHT22;2160;51.172;6.808;2023-12-04T10:49:27;5.40;99.90
4293;DHT22;2160;51.172;6.808;2023-12-04T10:51:55;5.60;99.90
4293;DHT22;2160;51.172;6.808;2023-12-04T10:54:23;5.40;99.90
4293;DHT22;2160;51.172;6.808;2023-12-04T10:56:52;5.40;99.90
4293;DHT22;2160;51.172;6.808;2023-12-04T10:59:24;5.50;99.90
4293;DHT22;2160;51.172;6.808;2023-12-04T11:01:53;5.30;99.90
4293;DHT22;2160;51.172;6.808;2023-12-04T11:04:24;5.40;99.90
4293;DHT22;2160;51.172;6.808;2023-12-04T11:06:53;5.50;99.90
4293;DHT22;2160;51.172;6.808;2023-12-04T11:09:21;5.60;99.90
4293;DHT22;2160;51.172;6.808;2023-12-04T11:11:55;5.50;99.90
4293;DHT22;2160;51.172;6.808;2023-12-04T11:14:27;5.40;99.90
4293;DHT22;2160;51.172;6.808;2023-12-04T11:17:01;5.30;99.90
4293;DHT22;2160;51.172;6.808;2023-12-04T11:19:37;5.40;99.90
4293;DHT22;2160;51.172;6.808;2023-12-04T11:22:07;5.50;99.90
4293;DHT22;2160;51.172;6.808;2023-12-04T11:24:35;5.50;99.90
4293;DHT22;2160;51.172;6.808;2023-12-04T11:27:03;5.10;99.90
4293;DHT22;2160;51.172;6.808;2023-12-04T11:29:32;5.00;99.90
4293;DHT22;2160;51.172;6.808;2023-12-04T11:31:59;4.90;99.90
4293;DHT22;2160;51.172;6.808;2023-12-04T11:34:26;4.90;99.90
4293;DHT22;2160;51.172;6.808;2023-12-04T11:36:54;5.00;99.90
4293;DHT22;2160;51.172;6.808;2023-12-04T11:39:21;5.40;99.90
4293;DHT22;2160;51.172;6.808;2023-12-04T11:41:50;5.30;99.90
4293;DHT22;2160;51.172;6.808;2023-12-04T11:44:18;5.10;99.90
4293;DHT22;2160;51.172;6.808;2023-12-04T11:46:58;5.40;99.90
4293;DHT22;2160;51.172;6.808;2023-12-04T11:49:30;5.40;99.90
4293;DHT22;2160;51.172;6.808;2023-12-04T11:51:57;5.60;99.90
4293;DHT22;2160;51.172;6.808;2023-12-04T11:54:26;5.70;99.90
4293;DHT22;2160;51.172;6.808;2023-12-04T11:57:02;5.60;99.90
4293;DHT22;2160;51.172;6.808;2023-12-04T11:59:45;5.60;99.90
4293;DHT22;2160;51.172;6.808;2023-12-04T12:02:15;5.50;99.90
4293;DHT22;2160;51.172;6.808;2023-12-04T12:04:42;5.60;99.90
4293;DHT22;2160;51.172;6.808;2023-12-04T12:07:11;5.40;99.90
4293;DHT22;2160;51.172;6.808;2023-12-04T12:09:38;5.50;99.90
4293;DHT22;2160;51.172;6.808;2023-12-04T12:12:06;5.20;99.90
4293;DHT22;2160;51.172;6.808;2023-12-04T12:14:33;5.00;99.90
4293;DHT22;2160;51.172;6.808;2023-12-04T12:17:00;4.70;99.90
4293;DHT22;2160;51.172;6.808;2023-12-04T12:19:29;4.80;99.90
4293;DHT22;2160;51.172;6.808;2023-12-04T12:21:56;4.50;99.90
4293;DHT22;2160;51.172;6.808;2023-12-04T12:24:23;4.30;99.90
4293;DHT22;2160;51.172;6.808;2023-12-04T12:26:52;4.70;99.90
4293;DHT22;2160;51.172;6.808;2023-12-04T12:29:20;4.60;99.90
4293;DHT22;2160;51.172;6.808;2023-12-04T12:31:47;4.90;99.90
4293;DHT22;2160;51.172;6.808;2023-12-04T12:34:14;4.80;99.90
4293;DHT22;2160;51.172;6.808;2023-12-04T12:36:42;4.90;99.90
4293;DHT22;2160;51.172;6.808;2023-12-04T12:39:09;5.00;99.90
4293;DHT22;2160;51.172;6.808;2023-12-04T12:41:37;4.90;99.90
4293;DHT22;2160;51.172;6.808;2023-12-04T12:44:05;4.80;99.90
4293;DHT22;2160;51.172;6.808;2023-12-04T12:46:31;4.70;99.90
4293;DHT22;2160;51.172;6.808;2023-12-04T12:49:00;4.80;99.90
4293;DHT22;2160;51.172;6.808;2023-12-04T12:51:28;4.90;99.90
4293;DHT22;2160;51.172;6.808;2023-12-04T12:53:58;4.90;99.90
4293;DHT22;2160;51.172;6.808;2023-12-04T12:56:25;4.90;99.90
4293;DHT22;2160;51.172;6.808;2023-12-04T12:58:53;4.90;99.90
4293;DHT22;2160;51.172;6.808;2023-12-04T13:01:22;4.80;99.90
4293;DHT22;2160;51.172;6.808;2023-12-04T13:03:50;4.70;99.90
4293;DHT22;2160;51.172;6.808;2023-12-04T13:06:17;4.90;99.90
4293;DHT22;2160;51.172;6.808;2023-12-04T13:08:44;5.00;99.90
4293;DHT22;2160;51.172;6.808;2023-12-04T13:11:13;5.00;99.90
4293;DHT22;2160;51.172;6.808;2023-12-04T13:13:40;5.00;99.90
4293;DHT22;2160;51.172;6.808;2023-12-04T13:16:08;5.00;99.90
4293;DHT22;2160;51.172;6.808;2023-12-04T13:18:35;5.00;99.90
4293;DHT22;2160;51.172;6.808;2023-12-04T13:21:04;5.00;99.90
4293;DHT22;2160;51.172;6.808;2023-12-04T13:23:31;4.90;99.90
4293;DHT22;2160;51.172;6.808;2023-12-04T13:25:58;4.80;99.90
4293;DHT22;2160;51.172;6.808;2023-12-04T13:28:26;5.00;99.90
4293;DHT22;2160;51.172;6.808;2023-12-04T13:30:53;4.90;99.90
4293;DHT22;2160;51.172;6.808;2023-12-04T13:33:21;4.90;99.90
4293;DHT22;2160;51.172;6.808;2023-12-04T13:35:48;4.90;99.90
4293;DHT22;2160;51.172;6.808;2023-12-04T13:38:15;5.00;99.90
4293;DHT22;2160;51.172;6.808;2023-12-04T13:40:43;5.20;99.90
4293;DHT22;2160;51.172;6.808;2023-12-04T13:43:26;5.10;99.90
4293;DHT22;2160;51.172;6.808;2023-12-04T13:46:11;5.00;99.90
4293;DHT22;2160;51.172;6.808;2023-12-04T13:48:38;4.70;99.90
4293;DHT22;2160;51.172;6.808;2023-12-04T13:51:06;4.70;99.90
4293;DHT22;2160;51.172;6.808;2023-12-04T13:53:34;4.60;99.90
4293;DHT22;2160;51.172;6.808;2023-12-04T13:56:05;4.70;99.90
4293;DHT22;2160;51.172;6.808;2023-12-04T13:58:52;4.70;99.90
4293;DHT22;2160;51.172;6.808;2023-12-04T14:01:23;4.70;99.90
4293;DHT22;2160;51.172;6.808;2023-12-04T14:03:52;4.60;99.90
4293;DHT22;2160;51.172;6.808;2023-12-04T14:06:19;4.60;99.90
4293;DHT22;2160;51.172;6.808;2023-12-04T14:08:46;4.70;99.90
4293;DHT22;2160;51.172;6.808;2023-12-04T14:11:13;4.80;99.90
4293;DHT22;2160;51.172;6.808;2023-12-04T14:13:40;4.80;99.90
4293;DHT22;2160;51.172;6.808;2023-12-04T14:16:09;4.90;99.90
4293;DHT22;2160;51.172;6.808;2023-12-04T14:18:36;4.90;99.90
4293;DHT22;2160;51.172;6.808;2023-12-04T14:21:04;4.80;99.90
4293;DHT22;2160;51.172;6.808;2023-12-04T14:23:32;5.00;99.90
4293;DHT22;2160;51.172;6.808;2023-12-04T14:26:00;4.80;99.90
4293;DHT22;2160;51.172;6.808;2023-12-04T14:28:27;4.90;99.90
4293;DHT22;2160;51.172;6.808;2023-12-04T14:30:54;4.80;99.90
4293;DHT22;2160;51.172;6.808;2023-12-04T14:33:23;4.90;99.90
4293;DHT22;2160;51.172;6.808;2023-12-04T14:35:50;5.10;99.90
4293;DHT22;2160;51.172;6.808;2023-12-04T14:38:18;5.20;99.90
4293;DHT22;2160;51.172;6.808;2023-12-04T14:40:45;5.10;99.90
4293;DHT22;2160;51.172;6.808;2023-12-04T14:43:12;5.00;99.90
4293;DHT22;2160;51.172;6.808;2023-12-04T14:45:39;5.00;99.90
4293;DHT22;2160;51.172;6.808;2023-12-04T14:48:06;5.00;99.90
4293;DHT22;2160;51.172;6.808;2023-12-04T14:50:34;5.20;99.90
4293;DHT22;2160;51.172;6.808;2023-12-04T14:53:03;5.00;99.90
4293;DHT22;2160;51.172;6.808;2023-12-04T14:55:42;5.00;99.90
4293;DHT22;2160;51.172;6.808;2023-12-04T14:58:23;5.00;99.90
4293;DHT22;2160;51.172;6.808;2023-12-04T15:01:22;5.10;99.90
4293;DHT22;2160;51.172;6.808;2023-12-04T15:04:18;5.20;99.90
4293;DHT22;2160;51.172;6.808;2023-12-04T15:07:06;4.90;99.90
4293;DHT22;2160;51.172;6.808;2023-12-04T15:09:47;4.80;99.90
4293;DHT22;2160;51.172;6.808;2023-12-04T15:12:31;4.90;99.90
4293;DHT22;2160;51.172;6.808;2023-12-04T15:15:16;5.10;99.90
4293;DHT22;2160;51.172;6.808;2023-12-04T15:17:59;5.10;99.90
4293;DHT22;2160;51.172;6.808;2023-12-04T15:20:40;5.20;99.90
4293;DHT22;2160;51.172;6.808;2023-12-04T15:23:08;5.20;99.90
4293;DHT22;2160;51.172;6.808;2023-12-04T15:25:35;5.30;99.90
4293;DHT22;2160;51.172;6.808;2023-12-04T15:28:02;5.30;99.90
4293;DHT22;2160;51.172;6.808;2023-12-04T15:30:33;5.40;99.90
4293;DHT22;2160;51.172;6.808;2023-12-04T15:32:59;5.20;99.90
4293;DHT22;2160;51.172;6.808;2023-12-04T15:35:26;5.20;99.90
4293;DHT22;2160;51.172;6.808;2023-12-04T15:37:52;5.30;99.90
4293;DHT22;2160;51.172;6.808;2023-12-04T15:40:20;5.30;99.90
4293;DHT22;2160;51.172;6.808;2023-12-04T15:42:47;5.00;99.90
4293;DHT22;2160;51.172;6.808;2023-12-04T15:45:13;4.90;99.90
4293;DHT22;2160;51.172;6.808;2023-12-04T15:47:41;4.80;99.90
4293;DHT22;2160;51.172;6.808;2023-12-04T15:50:07;5.00;99.90
4293;DHT22;2160;51.172;6.808;2023-12-04T15:52:34;5.00;99.90
4293;DHT22;2160;51.172;6.808;2023-12-04T15:55:06;5.00;99.90
4293;DHT22;2160;51.172;6.808;2023-12-04T15:57:37;4.90;99.90
4293;DHT22;2160;51.172;6.808;2023-12-04T16:00:04;4.80;99.90
4293;DHT22;2160;51.172;6.808;2023-12-04T16:02:39;4.80;99.90
4293;DHT22;2160;51.172;6.808;2023-12-04T16:05:07;4.80;99.90
4293;DHT22;2160;51.172;6.808;2023-12-04T16:07:36;4.90;99.90
4293;DHT22;2160;51.172;6.808;2023-12-04T16:10:04;4.80;99.90
4293;DHT22;2160;51.172;6.808;2023-12-04T16:12:32;4.80;99.90
4293;DHT22;2160;51.172;6.808;2023-12-04T16:15:00;4.80;99.90
4293;DHT22;2160;51.172;6.808;2023-12-04T16:17:29;5.00;99.90
4293;DHT22;2160;51.172;6.808;2023-12-04T16:19:56;4.90;99.90
4293;DHT22;2160;51.172;6.808;2023-12-04T16:22:25;4.90;99.90
4293;DHT22;2160;51.172;6.808;2023-12-04T16:24:52;4.70;99.90
4293;DHT22;2160;51.172;6.808;2023-12-04T16:27:19;4.80;99.90
4293;DHT22;2160;51.172;6.808;2023-12-04T16:29:46;4.90;99.90
4293;DHT22;2160;51.172;6.808;2023-12-04T16:32:14;4.80;99.90
4293;DHT22;2160;51.172;6.808;2023-12-04T16:34:42;4.90;99.90
4293;DHT22;2160;51.172;6.808;2023-12-04T16:37:09;5.00;99.90
4293;DHT22;2160;51.172;6.808;2023-12-04T16:39:36;4.80;99.90
4293;DHT22;2160;51.172;6.808;2023-12-04T16:42:06;4.90;99.90
4293;DHT22;2160;51.172;6.808;2023-12-04T16:44:33;4.90;99.90
4293;DHT22;2160;51.172;6.808;2023-12-04T16:47:01;5.00;99.90
4293;DHT22;2160;51.172;6.808;2023-12-04T16:49:30;5.00;99.90
4293;DHT22;2160;51.172;6.808;2023-12-04T16:51:57;4.90;99.90
4293;DHT22;2160;51.172;6.808;2023-12-04T16:54:24;5.00;99.90
4293;DHT22;2160;51.172;6.808;2023-12-04T16:56:51;5.00;99.90
4293;DHT22;2160;51.172;6.808;2023-12-04T16:59:19;4.90;99.90
4293;DHT22;2160;51.172;6.808;2023-12-04T17:01:46;4.80;99.90
4293;DHT22;2160;51.172;6.808;2023-12-04T17:04:13;4.90;99.90
4293;DHT22;2160;51.172;6.808;2023-12-04T17:06:41;4.90;99.90
4293;DHT22;2160;51.172;6.808;2023-12-04T17:09:08;5.00;99.90
4293;DHT22;2160;51.172;6.808;2023-12-04T17:11:40;5.20;99.90
4293;DHT22;2160;51.172;6.808;2023-12-04T17:14:07;5.20;99.90
4293;DHT22;2160;51.172;6.808;2023-12-04T17:16:34;5.30;99.90
4293;DHT22;2160;51.172;6.808;2023-12-04T17:19:01;5.30;99.90
4293;DHT22;2160;51.172;6.808;2023-12-04T17:21:28;5.20;99.90
4293;DHT22;2160;51.172;6.808;2023-12-04T17:23:56;5.20;99.90
4293;DHT22;2160;51.172;6.808;2023-12-04T17:26:23;5.20;99.90
4293;DHT22;2160;51.172;6.808;2023-12-04T17:28:50;5.20;99.90
4293;DHT22;2160;51.172;6.808;2023-12-04T17:31:17;5.30;99.90
4293;DHT22;2160;51.172;6.808;2023-12-04T17:33:45;5.30;99.90
4293;DHT22;2160;51.172;6.808;2023-12-04T17:36:12;5.30;99.90
4293;DHT22;2160;51.172;6.808;2023-12-04T17:38:39;5.40;99.90
4293;DHT22;2160;51.172;6.808;2023-12-04T17:41:09;5.20;99.90
4293;DHT22;2160;51.172;6.808;2023-12-04T17:43:36;5.20;99.90
4293;DHT22;2160;51.172;6.808;2023-12-04T17:46:04;5.20;99.90
4293;DHT22;2160;51.172;6.808;2023-12-04T17:48:31;5.20;99.90
4293;DHT22;2160;51.172;6.808;2023-12-04T17:50:58;5.20;99.90
4293;DHT22;2160;51.172;6.808;2023-12-04T17:53:25;5.00;99.90
4293;DHT22;2160;51.172;6.808;2023-12-04T17:55:52;4.80;99.90
4293;DHT22;2160;51.172;6.808;2023-12-04T17:58:21;4.80;99.90
4293;DHT22;2160;51.172;6.808;2023-12-04T18:00:48;5.10;99.90
4293;DHT22;2160;51.172;6.808;2023-12-04T18:03:15;5.00;99.90
4293;DHT22;2160;51.172;6.808;2023-12-04T18:05:42;4.80;99.90
4293;DHT22;2160;51.172;6.808;2023-12-04T18:08:09;5.00;99.90
4293;DHT22;2160;51.172;6.808;2023-12-04T18:10:38;5.20;99.90
4293;DHT22;2160;51.172;6.808;2023-12-04T18:13:05;5.20;99.90
4293;DHT22;2160;51.172;6.808;2023-12-04T18:15:33;5.10;99.90
4293;DHT22;2160;51.172;6.808;2023-12-04T18:18:02;5.10;99.90
4293;DHT22;2160;51.172;6.808;2023-12-04T18:20:31;5.30;99.90
4293;DHT22;2160;51.172;6.808;2023-12-04T18:22:58;5.30;99.90
4293;DHT22;2160;51.172;6.808;2023-12-04T18:25:26;5.40;99.90
4293;DHT22;2160;51.172;6.808;2023-12-04T18:27:54;5.30;99.90
4293;DHT22;2160;51.172;6.808;2023-12-04T18:30:24;5.30;99.90
4293;DHT22;2160;51.172;6.808;2023-12-04T18:32:55;5.10;99.90
4293;DHT22;2160;51.172;6.808;2023-12-04T18:35:23;5.10;99.90
4293;DHT22;2160;51.172;6.808;2023-12-04T18:37:55;5.10;99.90
4293;DHT22;2160;51.172;6.808;2023-12-04T18:40:23;5.10;99.90
4293;DHT22;2160;51.172;6.808;2023-12-04T18:42:51;5.20;99.90
4293;DHT22;2160;51.172;6.808;2023-12-04T18:45:19;5.20;99.90
4293;DHT22;2160;51.172;6.808;2023-12-04T18:47:52;5.30;99.90
4293;DHT22;2160;51.172;6.808;2023-12-04T18:50:22;5.20;99.90
4293;DHT22;2160;51.172;6.808;2023-12-04T18:52:49;5.30;99.90
4293;DHT22;2160;51.172;6.808;2023-12-04T18:55:17;5.30;99.90
4293;DHT22;2160;51.172;6.808;2023-12-04T18:57:44;5.30;99.90
4293;DHT22;2160;51.172;6.808;2023-12-04T19:00:12;5.30;99.90
4293;DHT22;2160;51.172;6.808;2023-12-04T19:02:39;5.40;99.90
4293;DHT22;2160;51.172;6.808;2023-12-04T19:05:06;5.40;99.90
4293;DHT22;2160;51.172;6.808;2023-12-04T19:07:35;5.40;99.90
4293;DHT22;2160;51.172;6.808;2023-12-04T19:10:02;5.40;99.90
4293;DHT22;2160;51.172;6.808;2023-12-04T19:12:29;5.50;99.90
4293;DHT22;2160;51.172;6.808;2023-12-04T19:14:56;5.50;99.90
4293;DHT22;2160;51.172;6.808;2023-12-04T19:17:23;5.40;99.90
4293;DHT22;2160;51.172;6.808;2023-12-04T19:19:50;5.30;99.90
4293;DHT22;2160;51.172;6.808;2023-12-04T19:22:17;5.40;99.90
4293;DHT22;2160;51.172;6.808;2023-12-04T19:24:46;5.60;99.90
4293;DHT22;2160;51.172;6.808;2023-12-04T19:27:13;5.40;99.90
4293;DHT22;2160;51.172;6.808;2023-12-04T19:29:40;5.50;99.90
4293;DHT22;2160;51.172;6.808;2023-12-04T19:32:07;5.50;99.90
4293;DHT22;2160;51.172;6.808;2023-12-04T19:34:34;5.50;99.90
4293;DHT22;2160;51.172;6.808;2023-12-04T19:37:00;5.60;99.90
4293;DHT22;2160;51.172;6.808;2023-12-04T19:39:27;5.70;99.90
4293;DHT22;2160;51.172;6.808;2023-12-04T19:41:56;5.70;99.90
4293;DHT22;2160;51.172;6.808;2023-12-04T19:44:23;5.70;99.90
4293;DHT22;2160;51.172;6.808;2023-12-04T19:46:50;5.60;99.90
4293;DHT22;2160;51.172;6.808;2023-12-04T19:49:19;5.60;99.90
4293;DHT22;2160;51.172;6.808;2023-12-04T19:51:46;5.70;99.90
4293;DHT22;2160;51.172;6.808;2023-12-04T19:54:13;5.60;99.90
4293;DHT22;2160;51.172;6.808;2023-12-04T19:56:42;5.60;99.90
4293;DHT22;2160;51.172;6.808;2023-12-04T19:59:10;5.60;99.90
4293;DHT22;2160;51.172;6.808;2023-12-04T20:01:37;5.80;99.90
4293;DHT22;2160;51.172;6.808;2023-12-04T20:04:05;5.80;99.90
4293;DHT22;2160;51.172;6.808;2023-12-04T20:06:32;5.70;99.90
4293;DHT22;2160;51.172;6.808;2023-12-04T20:08:59;5.70;99.90
4293;DHT22;2160;51.172;6.808;2023-12-04T20:11:26;5.70;99.90
4293;DHT22;2160;51.172;6.808;2023-12-04T20:13:53;5.80;99.90
4293;DHT22;2160;51.172;6.808;2023-12-04T20:16:22;6.10;99.90
4293;DHT22;2160;51.172;6.808;2023-12-04T20:18:48;5.90;99.90
4293;DHT22;2160;51.172;6.808;2023-12-04T20:21:15;5.80;99.90
4293;DHT22;2160;51.172;6.808;2023-12-04T20:23:42;5.70;99.90
4293;DHT22;2160;51.172;6.808;2023-12-04T20:26:09;5.80;99.90
4293;DHT22;2160;51.172;6.808;2023-12-04T20:28:36;5.80;99.90
4293;DHT22;2160;51.172;6.808;2023-12-04T20:31:04;6.10;99.90
4293;DHT22;2160;51.172;6.808;2023-12-04T20:33:33;6.00;99.90
4293;DHT22;2160;51.172;6.808;2023-12-04T20:36:00;5.90;99.90
4293;DHT22;2160;51.172;6.808;2023-12-04T20:38:30;5.90;99.90
4293;DHT22;2160;51.172;6.808;2023-12-04T20:40:57;5.80;99.90
4293;DHT22;2160;51.172;6.808;2023-12-04T20:43:24;5.80;99.90
4293;DHT22;2160;51.172;6.808;2023-12-04T20:45:51;5.80;99.90
4293;DHT22;2160;51.172;6.808;2023-12-04T20:48:18;5.80;99.90
4293;DHT22;2160;51.172;6.808;2023-12-04T20:50:46;5.80;99.90
4293;DHT22;2160;51.172;6.808;2023-12-04T20:53:15;5.90;99.90
4293;DHT22;2160;51.172;6.808;2023-12-04T20:55:42;5.80;99.90
4293;DHT22;2160;51.172;6.808;2023-12-04T20:58:11;5.90;99.90
4293;DHT22;2160;51.172;6.808;2023-12-04T21:00:38;5.90;99.90
4293;DHT22;2160;51.172;6.808;2023-12-04T21:03:05;5.90;99.90
4293;DHT22;2160;51.172;6.808;2023-12-04T21:05:32;6.00;99.90
4293;DHT22;2160;51.172;6.808;2023-12-04T21:08:01;5.80;99.90
4293;DHT22;2160;51.172;6.808;2023-12-04T21:10:28;5.90;99.90
4293;DHT22;2160;51.172;6.808;2023-12-04T21:12:55;6.10;99.90
4293;DHT22;2160;51.172;6.808;2023-12-04T21:15:23;6.00;99.90
4293;DHT22;2160;51.172;6.808;2023-12-04T21:17:50;6.10;99.90
4293;DHT22;2160;51.172;6.808;2023-12-04T21:20:17;6.00;99.90
4293;DHT22;2160;51.172;6.808;2023-12-04T21:22:45;6.00;99.90
4293;DHT22;2160;51.172;6.808;2023-12-04T21:25:13;6.00;99.90